createdAt,value
2018-12-13T00:02:22.552Z,13.60
2018-12-13T00:04:50.814Z,13.20
2018-12-13T00:07:19.047Z,12.67
2018-12-13T00:09:47.201Z,12.90
2018-12-13T00:12:15.415Z,15.67
2018-12-13T00:14:43.545Z,13.37
2018-12-13T00:17:12.438Z,13.20
2018-12-13T00:19:40.571Z,13.17
2018-12-13T00:22:08.845Z,13.93
2018-12-13T00:24:37.048Z,14.13
2018-12-13T00:27:05.251Z,13.73
2018-12-13T00:29:33.739Z,12.70
2018-12-13T00:32:01.970Z,12.97
2018-12-13T00:34:30.093Z,15.87
2018-12-13T00:36:58.240Z,18.20
2018-12-13T00:39:26.383Z,14.80
2018-12-13T00:41:54.518Z,13.37
2018-12-13T00:44:22.730Z,13.77
2018-12-13T00:46:50.935Z,15.70
2018-12-13T00:49:19.074Z,14.20
2018-12-13T00:51:47.321Z,13.60
2018-12-13T00:54:15.462Z,15.13
2018-12-13T00:56:43.641Z,14.10
2018-12-13T00:59:11.867Z,14.60
2018-12-13T01:01:40.206Z,14.47
2018-12-13T01:04:08.353Z,12.63
2018-12-13T01:06:36.638Z,13.90
2018-12-13T01:09:05.958Z,15.70
2018-12-13T01:11:34.225Z,15.40
2018-12-13T01:14:02.454Z,13.50
2018-12-13T01:16:30.682Z,15.03
2018-12-13T01:18:58.961Z,13.13
2018-12-13T01:21:27.104Z,14.77
2018-12-13T01:23:55.306Z,12.67
2018-12-13T01:26:23.590Z,15.00
2018-12-13T01:28:51.840Z,14.63
2018-12-13T01:31:20.182Z,11.93
2018-12-13T01:33:48.322Z,12.80
2018-12-13T01:36:16.457Z,13.53
2018-12-13T01:38:44.642Z,11.93
2018-12-13T01:41:12.779Z,10.57
2018-12-13T01:43:40.971Z,11.80
2018-12-13T01:46:09.238Z,11.33
2018-12-13T01:48:37.386Z,10.13
2018-12-13T01:51:06.330Z,12.63
2018-12-13T01:53:34.918Z,12.47
2018-12-13T01:56:03.206Z,10.13
2018-12-13T01:58:31.432Z,9.90
2018-12-13T02:00:59.590Z,10.67
2018-12-13T02:03:27.733Z,10.43
2018-12-13T02:05:55.864Z,9.50
2018-12-13T02:08:24.007Z,9.83
2018-12-13T02:10:52.204Z,11.73
2018-12-13T02:13:20.403Z,12.53
2018-12-13T02:15:48.544Z,11.77
2018-12-13T02:18:16.752Z,12.50
2018-12-13T02:20:45.724Z,11.93
2018-12-13T02:23:13.887Z,11.90
2018-12-13T02:25:42.730Z,12.30
2018-12-13T02:28:10.987Z,10.53
2018-12-13T02:30:39.179Z,15.37
2018-12-13T02:33:07.400Z,14.77
2018-12-13T02:35:35.536Z,17.73
2018-12-13T02:38:03.954Z,15.17
2018-12-13T02:40:32.171Z,15.57
2018-12-13T02:43:00.347Z,17.13
2018-12-13T02:45:29.086Z,19.27
2018-12-13T02:47:57.810Z,18.97
2018-12-13T02:50:26.014Z,16.20
2018-12-13T02:52:54.281Z,19.13
2018-12-13T02:55:22.506Z,16.43
2018-12-13T02:57:50.812Z,17.13
2018-12-13T03:00:19.122Z,18.43
2018-12-13T03:02:48.116Z,17.00
2018-12-13T03:05:16.522Z,19.67
2018-12-13T03:07:44.670Z,20.43
2018-12-13T03:10:13.023Z,16.63
2018-12-13T03:12:41.217Z,17.87
2018-12-13T03:15:09.437Z,20.10
2018-12-13T03:17:37.613Z,17.60
2018-12-13T03:20:05.944Z,16.87
2018-12-13T03:22:34.086Z,18.87
2018-12-13T03:25:02.478Z,15.47
2018-12-13T03:27:30.616Z,16.63
2018-12-13T03:29:59.130Z,20.23
2018-12-13T03:32:27.329Z,17.23
2018-12-13T03:34:55.637Z,19.43
2018-12-13T03:37:23.951Z,18.93
2018-12-13T03:39:52.086Z,16.57
2018-12-13T03:42:20.311Z,16.00
2018-12-13T03:44:48.710Z,18.07
2018-12-13T03:47:16.914Z,14.87
2018-12-13T03:49:45.071Z,16.07
2018-12-13T03:52:13.262Z,17.37
2018-12-13T03:54:41.412Z,17.53
2018-12-13T03:57:09.590Z,19.00
2018-12-13T03:59:37.847Z,13.70
2018-12-13T04:02:06.169Z,15.23
2018-12-13T04:04:36.332Z,14.43
2018-12-13T04:07:04.693Z,18.70
2018-12-13T04:09:32.846Z,15.03
2018-12-13T04:12:01.062Z,14.97
2018-12-13T04:14:29.294Z,14.20
2018-12-13T04:16:57.669Z,14.70
2018-12-13T04:19:26.104Z,13.67
2018-12-13T04:21:54.358Z,13.20
2018-12-13T04:24:22.548Z,13.20
2018-12-13T04:26:50.826Z,11.93
2018-12-13T04:29:18.970Z,14.00
2018-12-13T04:31:47.161Z,11.37
2018-12-13T04:34:15.353Z,12.43
2018-12-13T04:36:43.542Z,11.63
2018-12-13T04:39:11.737Z,11.00
2018-12-13T04:41:40.081Z,9.50
2018-12-13T04:44:08.485Z,10.83
2018-12-13T04:46:36.614Z,8.23
2018-12-13T04:49:04.948Z,7.57
2018-12-13T04:51:34.158Z,6.63
2018-12-13T04:54:02.291Z,8.30
2018-12-13T04:56:30.489Z,7.97
2018-12-13T04:58:58.754Z,6.93
2018-12-13T05:01:27.008Z,7.90
2018-12-13T05:03:55.137Z,9.40
2018-12-13T05:06:23.354Z,7.77
2018-12-13T05:08:51.733Z,9.40
2018-12-13T05:11:19.953Z,9.17
2018-12-13T05:13:48.198Z,9.23
2018-12-13T05:16:16.545Z,9.50
2018-12-13T05:18:44.689Z,9.47
2018-12-13T05:21:12.815Z,9.10
2018-12-13T05:23:40.960Z,10.90
2018-12-13T05:26:09.733Z,9.97
2018-12-13T05:28:37.921Z,10.13
2018-12-13T05:31:06.125Z,9.77
2018-12-13T05:33:34.421Z,10.03
2018-12-13T05:36:02.559Z,7.87
2018-12-13T05:38:30.687Z,10.03
2018-12-13T05:40:58.851Z,8.17
2018-12-13T05:43:27.106Z,8.27
2018-12-13T05:45:55.422Z,9.00
2018-12-13T05:48:23.615Z,7.23
2018-12-13T05:50:51.823Z,9.63
2018-12-13T05:53:20.202Z,8.23
2018-12-13T05:55:48.406Z,8.83
2018-12-13T05:58:16.702Z,8.90
2018-12-13T06:00:44.946Z,8.33
2018-12-13T06:03:13.247Z,6.97
2018-12-13T06:05:41.441Z,7.50
2018-12-13T06:08:09.658Z,7.27
2018-12-13T06:10:37.982Z,7.23
2018-12-13T06:13:06.263Z,6.63
2018-12-13T06:15:34.466Z,5.47
2018-12-13T06:18:06.757Z,7.57
2018-12-13T06:20:32.823Z,6.10
2018-12-13T06:23:01.105Z,6.23
2018-12-13T06:25:29.463Z,6.40
2018-12-13T06:27:57.592Z,6.33
2018-12-13T06:30:25.817Z,5.20
2018-12-13T06:32:54.027Z,5.50
2018-12-13T06:35:22.232Z,5.37
2018-12-13T06:37:50.465Z,4.83
2018-12-13T06:40:18.723Z,8.17
2018-12-13T06:42:47.023Z,5.03
2018-12-13T06:45:15.217Z,6.30
2018-12-13T06:47:43.482Z,4.23
2018-12-13T06:50:12.490Z,4.03
2018-12-13T06:52:40.688Z,5.27
2018-12-13T06:55:08.914Z,6.80
2018-12-13T06:57:37.108Z,5.83
2018-12-13T07:00:07.603Z,4.67
2018-12-13T07:02:36.069Z,5.13
2018-12-13T07:05:04.441Z,4.60
2018-12-13T07:07:32.648Z,4.23
2018-12-13T07:10:00.845Z,3.80
2018-12-13T07:12:29.051Z,4.57
2018-12-13T07:14:57.176Z,4.53
2018-12-13T07:17:25.386Z,4.23
2018-12-13T07:19:53.530Z,5.00
2018-12-13T07:22:21.702Z,4.93
2018-12-13T07:24:49.849Z,4.50
2018-12-13T07:27:18.178Z,5.60
2018-12-13T07:29:46.332Z,5.70
2018-12-13T07:32:14.465Z,4.70
2018-12-13T07:34:42.593Z,5.63
2018-12-13T07:37:10.793Z,5.23
2018-12-13T07:39:38.918Z,5.37
2018-12-13T07:42:07.118Z,5.10
2018-12-13T07:44:35.253Z,4.53
2018-12-13T07:47:03.595Z,5.17
2018-12-13T07:49:31.748Z,5.03
2018-12-13T07:51:59.885Z,4.47
2018-12-13T07:54:28.129Z,5.27
2018-12-13T07:56:57.074Z,4.37
2018-12-13T07:59:25.253Z,4.23
2018-12-13T08:01:53.536Z,5.60
2018-12-13T08:04:21.814Z,8.90
2018-12-13T08:06:50.062Z,5.70
2018-12-13T08:09:18.199Z,5.73
2018-12-13T08:11:46.440Z,6.13
2018-12-13T08:14:14.625Z,5.37
2018-12-13T08:16:42.745Z,6.10
2018-12-13T08:19:10.876Z,5.73
2018-12-13T08:21:39.162Z,5.70
2018-12-13T08:24:07.431Z,7.37
2018-12-13T08:26:35.577Z,6.30
2018-12-13T08:29:03.789Z,6.63
2018-12-13T08:31:31.933Z,6.10
2018-12-13T08:34:00.236Z,6.17
2018-12-13T08:36:28.418Z,9.53
2018-12-13T08:38:56.675Z,7.03
2018-12-13T08:41:24.843Z,9.10
2018-12-13T08:43:52.977Z,8.50
2018-12-13T08:46:21.109Z,7.27
2018-12-13T08:48:49.365Z,8.57
2018-12-13T08:51:17.558Z,6.17
2018-12-13T08:53:45.698Z,7.53
2018-12-13T08:56:13.827Z,7.67
2018-12-13T08:58:41.979Z,7.90
2018-12-13T09:01:10.146Z,8.50
2018-12-13T09:03:38.276Z,8.63
2018-12-13T09:06:06.611Z,10.40
2018-12-13T09:08:34.778Z,8.47
2018-12-13T09:11:02.909Z,9.07
2018-12-13T09:13:31.230Z,8.80
2018-12-13T09:15:59.455Z,8.13
2018-12-13T09:18:27.576Z,8.27
2018-12-13T09:20:55.785Z,8.23
2018-12-13T09:23:24.087Z,9.63
2018-12-13T09:25:52.233Z,8.90
2018-12-13T09:28:20.533Z,9.33
2018-12-13T09:30:48.923Z,8.23
2018-12-13T09:33:17.131Z,10.17
2018-12-13T09:35:45.292Z,8.83
2018-12-13T09:38:13.580Z,7.70
2018-12-13T09:40:41.739Z,8.47
2018-12-13T09:43:09.907Z,10.03
2018-12-13T09:45:38.040Z,7.93
2018-12-13T09:48:06.185Z,7.33
2018-12-13T09:50:34.422Z,7.17
2018-12-13T09:53:03.027Z,6.13
2018-12-13T09:55:31.234Z,8.20
2018-12-13T09:57:59.512Z,6.97
2018-12-13T10:00:27.833Z,7.13
2018-12-13T10:02:56.016Z,6.83
2018-12-13T10:05:24.234Z,7.47
2018-12-13T10:07:52.504Z,6.53
2018-12-13T10:10:20.747Z,8.83
2018-12-13T10:12:48.979Z,5.63
2018-12-13T10:15:17.224Z,6.63
2018-12-13T10:17:45.605Z,5.57
2018-12-13T10:20:14.715Z,5.17
2018-12-13T10:22:42.918Z,5.67
2018-12-13T10:25:11.354Z,5.63
2018-12-13T10:27:39.479Z,5.63
2018-12-13T10:30:07.702Z,5.17
2018-12-13T10:32:35.871Z,4.70
2018-12-13T10:35:11.124Z,5.20
2018-12-13T10:37:35.540Z,5.30
2018-12-13T10:40:05.385Z,6.07
2018-12-13T10:42:33.506Z,5.03
2018-12-13T10:45:01.719Z,5.77
2018-12-13T10:47:29.862Z,7.60
2018-12-13T10:49:58.062Z,5.57
2018-12-13T10:52:26.289Z,4.50
2018-12-13T10:54:54.446Z,5.37
2018-12-13T10:57:22.578Z,5.10
2018-12-13T10:59:50.860Z,4.50
2018-12-13T11:02:24.828Z,4.13
2018-12-13T11:04:52.967Z,4.73
2018-12-13T11:07:21.373Z,4.00
2018-12-13T11:09:49.499Z,3.93
2018-12-13T11:12:17.630Z,4.30
2018-12-13T11:14:46.101Z,4.53
2018-12-13T11:17:14.221Z,4.73
2018-12-13T11:19:42.346Z,6.03
2018-12-13T11:22:10.574Z,4.73
2018-12-13T11:24:38.778Z,5.20
2018-12-13T11:30:25.881Z,4.30
2018-12-13T11:32:54.010Z,3.67
2018-12-13T11:35:22.219Z,3.40
2018-12-13T11:37:50.372Z,3.47
2018-12-13T11:40:18.533Z,3.37
2018-12-13T11:42:46.711Z,4.23
2018-12-13T11:45:14.879Z,3.10
2018-12-13T11:47:43.101Z,3.40
2018-12-13T11:50:11.239Z,3.97
2018-12-13T11:52:39.713Z,4.13
2018-12-13T11:58:09.890Z,4.50
2018-12-13T12:00:38.123Z,4.17
2018-12-13T12:03:06.256Z,3.73
2018-12-13T12:05:34.466Z,4.43
2018-12-13T12:08:02.701Z,4.73
2018-12-13T12:10:30.960Z,3.83
2018-12-13T12:12:59.097Z,3.20
2018-12-13T12:15:27.234Z,3.80
2018-12-13T12:17:55.363Z,3.50
2018-12-13T12:20:23.582Z,3.13
2018-12-13T12:22:51.885Z,3.77
2018-12-13T12:25:20.027Z,3.30
2018-12-13T12:27:48.162Z,3.13
2018-12-13T12:30:16.923Z,3.70
2018-12-13T12:32:45.062Z,3.47
2018-12-13T12:35:13.299Z,3.40
2018-12-13T12:37:41.425Z,3.10
2018-12-13T12:40:09.559Z,3.50
2018-12-13T12:42:37.806Z,3.70
2018-12-13T12:45:06.140Z,3.30
2018-12-13T12:47:34.288Z,3.67
2018-12-13T12:50:02.546Z,4.10
2018-12-13T12:52:30.682Z,4.67
2018-12-13T12:54:59.084Z,4.33
2018-12-13T12:57:27.215Z,4.50
2018-12-13T12:59:55.526Z,5.10
2018-12-13T13:02:23.802Z,4.23
2018-12-13T13:04:52.399Z,4.63
2018-12-13T13:07:20.603Z,5.37
2018-12-13T13:09:48.798Z,4.70
2018-12-13T13:12:16.948Z,4.20
2018-12-13T13:14:45.076Z,3.73
2018-12-13T13:17:13.208Z,3.90
2018-12-13T13:19:41.362Z,3.33
2018-12-13T13:22:09.492Z,3.60
2018-12-13T13:24:38.322Z,3.53
2018-12-13T13:27:06.487Z,5.30
2018-12-13T13:29:34.658Z,6.13
2018-12-13T13:32:02.979Z,5.87
2018-12-13T13:34:31.203Z,6.77
2018-12-13T13:36:59.726Z,7.13
2018-12-13T13:39:31.414Z,7.37
2018-12-13T13:41:58.004Z,7.07
2018-12-13T13:44:28.138Z,5.83
2018-12-13T13:46:56.279Z,6.43
2018-12-13T13:49:24.441Z,5.93
2018-12-13T13:51:52.633Z,5.90
2018-12-13T13:54:20.792Z,4.33
2018-12-13T13:56:48.916Z,5.03
2018-12-13T13:59:17.132Z,4.20
2018-12-13T14:01:45.380Z,6.23
2018-12-13T14:04:13.669Z,5.07
2018-12-13T14:06:41.875Z,4.90
2018-12-13T14:09:09.997Z,5.13
2018-12-13T14:11:38.554Z,5.87
2018-12-13T14:14:06.891Z,5.93
2018-12-13T14:16:35.080Z,6.70
2018-12-13T14:19:03.344Z,6.03
2018-12-13T14:21:31.549Z,5.40
2018-12-13T14:23:59.679Z,5.30
2018-12-13T14:26:27.817Z,6.00
2018-12-13T14:28:55.956Z,6.83
2018-12-13T14:31:24.248Z,5.73
2018-12-13T14:33:52.641Z,5.20
2018-12-13T14:36:20.847Z,5.33
2018-12-13T14:38:48.978Z,4.57
2018-12-13T14:41:17.402Z,5.40
2018-12-13T14:43:45.615Z,5.80
2018-12-13T14:46:13.774Z,5.63
2018-12-13T14:48:41.955Z,5.70
2018-12-13T14:51:10.904Z,5.43
2018-12-13T14:53:39.078Z,6.00
2018-12-13T14:56:07.266Z,5.30
2018-12-13T14:58:35.394Z,5.40
2018-12-13T15:01:03.574Z,6.40
2018-12-13T15:03:31.716Z,5.73
2018-12-13T15:05:59.856Z,6.50
2018-12-13T15:08:28.078Z,5.20
2018-12-13T15:10:56.233Z,6.23
2018-12-13T15:13:24.375Z,6.10
2018-12-13T15:15:52.674Z,6.43
2018-12-13T15:18:21.140Z,6.60
2018-12-13T15:20:49.278Z,6.73
2018-12-13T15:23:17.489Z,7.07
2018-12-13T15:25:45.803Z,8.43
2018-12-13T15:28:13.982Z,8.23
2018-12-13T15:30:42.226Z,8.07
2018-12-13T15:33:10.441Z,7.90
2018-12-13T15:35:38.564Z,8.03
2018-12-13T15:38:06.781Z,10.47
2018-12-13T15:40:35.182Z,8.93
2018-12-13T15:43:03.542Z,9.53
2018-12-13T15:45:31.953Z,9.13
2018-12-13T15:48:00.090Z,9.00
2018-12-13T15:50:28.915Z,7.80
2018-12-13T15:52:57.057Z,7.83
2018-12-13T15:55:25.374Z,9.30
2018-12-13T15:57:53.528Z,10.73
2018-12-13T16:00:22.296Z,9.50
2018-12-13T16:02:50.580Z,8.63
2018-12-13T16:05:18.741Z,9.50
2018-12-13T16:07:46.875Z,8.13
2018-12-13T16:10:15.014Z,10.60
2018-12-13T16:12:43.156Z,8.47
2018-12-13T16:15:12.026Z,9.27
2018-12-13T16:17:40.170Z,9.33
2018-12-13T16:20:08.293Z,9.37
2018-12-13T16:22:36.436Z,10.10
2018-12-13T16:25:04.964Z,10.73
2018-12-13T16:27:33.090Z,10.73
2018-12-13T16:30:01.475Z,10.37
2018-12-13T16:32:29.691Z,11.17
2018-12-13T16:34:57.955Z,11.20
2018-12-13T16:37:26.159Z,11.47
2018-12-13T16:39:54.402Z,11.00
2018-12-13T16:42:22.553Z,12.03
2018-12-13T16:44:50.678Z,11.60
2018-12-13T16:47:18.874Z,10.10
2018-12-13T16:49:47.040Z,11.03
2018-12-13T16:52:15.493Z,9.07
2018-12-13T16:54:44.481Z,8.07
2018-12-13T16:57:12.637Z,8.50
2018-12-13T16:59:40.778Z,7.93
2018-12-13T17:02:09.316Z,8.20
2018-12-13T17:04:37.720Z,9.53
2018-12-13T17:07:06.026Z,9.97
2018-12-13T17:09:34.295Z,10.93
2018-12-13T17:12:02.439Z,10.97
2018-12-13T17:14:30.645Z,11.50
2018-12-13T17:16:58.871Z,12.90
2018-12-13T17:19:27.147Z,13.30
2018-12-13T17:21:55.294Z,12.33
2018-12-13T17:24:23.502Z,12.80
2018-12-13T17:26:51.739Z,14.13
2018-12-13T17:29:19.880Z,14.17
2018-12-13T17:31:49.354Z,12.67
2018-12-13T17:34:17.561Z,14.43
2018-12-13T17:36:45.863Z,12.57
2018-12-13T17:39:14.105Z,14.13
2018-12-13T17:41:42.359Z,12.13
2018-12-13T17:44:10.565Z,11.20
2018-12-13T17:46:38.742Z,12.07
2018-12-13T17:49:07.090Z,11.27
2018-12-13T17:51:35.878Z,10.97
2018-12-13T17:54:04.956Z,13.07
2018-12-13T17:56:33.154Z,11.67
2018-12-13T17:59:01.350Z,12.77
2018-12-13T18:01:29.510Z,10.27
2018-12-13T18:03:57.649Z,10.47
2018-12-13T18:06:25.879Z,10.77
2018-12-13T18:08:54.034Z,10.23
2018-12-13T18:11:22.286Z,9.67
2018-12-13T18:13:50.425Z,9.07
2018-12-13T18:16:18.743Z,8.90
2018-12-13T18:18:46.878Z,7.90
2018-12-13T18:21:15.052Z,9.07
2018-12-13T18:23:43.258Z,7.87
2018-12-13T18:26:11.398Z,7.00
2018-12-13T18:28:39.609Z,7.67
2018-12-13T18:31:07.818Z,7.80
2018-12-13T18:33:36.042Z,7.33
2018-12-13T18:36:04.260Z,8.27
2018-12-13T18:38:32.510Z,7.73
2018-12-13T18:41:00.689Z,7.60
2018-12-13T18:43:28.915Z,6.80
2018-12-13T18:45:57.059Z,5.53
2018-12-13T18:48:25.270Z,6.53
2018-12-13T18:50:53.481Z,5.83
2018-12-13T18:53:21.657Z,5.70
2018-12-13T18:55:49.940Z,6.30
2018-12-13T18:58:18.168Z,7.40
2018-12-13T19:00:46.377Z,6.20
2018-12-13T19:03:14.511Z,6.73
2018-12-13T19:05:42.656Z,5.87
2018-12-13T19:08:10.919Z,5.43
2018-12-13T19:10:41.905Z,6.90
2018-12-13T19:13:09.540Z,7.00
2018-12-13T19:15:37.754Z,6.70
2018-12-13T19:18:06.072Z,6.20
2018-12-13T19:20:34.201Z,7.07
2018-12-13T19:23:02.425Z,5.63
2018-12-13T19:25:30.810Z,6.80
2018-12-13T19:27:58.947Z,8.33
2018-12-13T19:30:28.206Z,6.93
2018-12-13T19:32:56.417Z,7.83
2018-12-13T19:35:24.679Z,8.43
2018-12-13T19:37:53.348Z,7.80
2018-12-13T19:40:21.593Z,9.77
2018-12-13T19:42:49.857Z,8.47
2018-12-13T19:45:18.086Z,9.43
2018-12-13T19:47:46.287Z,8.10
2018-12-13T19:50:14.488Z,8.77
2018-12-13T19:52:42.616Z,8.57
2018-12-13T19:55:10.760Z,10.70
2018-12-13T19:57:38.910Z,9.13
2018-12-13T20:00:09.183Z,9.60
2018-12-13T20:02:37.303Z,8.30
2018-12-13T20:05:05.963Z,9.00
2018-12-13T20:07:34.167Z,7.90
2018-12-13T20:10:02.290Z,7.93
2018-12-13T20:12:30.476Z,10.03
2018-12-13T20:14:58.629Z,9.30
2018-12-13T20:17:26.834Z,9.77
2018-12-13T20:19:54.985Z,10.73
2018-12-13T20:22:23.182Z,10.37
2018-12-13T20:24:51.425Z,9.73
2018-12-13T20:27:19.629Z,10.17
2018-12-13T20:29:47.867Z,11.37
2018-12-13T20:32:16.079Z,11.90
2018-12-13T20:34:44.586Z,12.73
2018-12-13T20:37:12.719Z,10.60
2018-12-13T20:39:41.891Z,11.57
2018-12-13T20:42:10.010Z,10.90
2018-12-13T20:44:38.159Z,11.17
2018-12-13T20:47:06.368Z,12.17
2018-12-13T20:49:34.509Z,14.13
2018-12-13T20:52:02.656Z,11.23
2018-12-13T20:54:30.870Z,14.00
2018-12-13T20:56:59.071Z,11.43
2018-12-13T20:59:27.238Z,13.87
2018-12-13T21:01:55.521Z,11.97
2018-12-13T21:04:23.669Z,13.13
2018-12-13T21:06:53.865Z,13.13
2018-12-13T21:09:21.982Z,12.60
2018-12-13T21:11:50.120Z,13.07
2018-12-13T21:14:18.410Z,13.37
2018-12-13T21:16:46.812Z,13.07
2018-12-13T21:19:15.040Z,13.87
2018-12-13T21:21:43.261Z,11.50
2018-12-13T21:24:11.384Z,12.53
2018-12-13T21:26:39.623Z,12.77
2018-12-13T21:29:07.917Z,12.97
2018-12-13T21:31:36.180Z,13.63
2018-12-13T21:34:04.377Z,13.77
2018-12-13T21:36:32.628Z,15.53
2018-12-13T21:39:00.945Z,14.80
2018-12-13T21:41:29.456Z,16.37
2018-12-13T21:43:57.680Z,15.67
2018-12-13T21:46:25.973Z,17.53
2018-12-13T21:48:54.187Z,15.30
2018-12-13T21:51:22.335Z,15.10
2018-12-13T21:53:50.479Z,16.20
2018-12-13T21:56:18.619Z,16.67
2018-12-13T21:58:46.822Z,15.47
2018-12-13T22:01:15.023Z,16.83
2018-12-13T22:03:43.441Z,16.97
2018-12-13T22:06:11.631Z,15.70
2018-12-13T22:08:39.782Z,16.93
2018-12-13T22:11:08.119Z,17.37
2018-12-13T22:13:36.561Z,17.50
2018-12-13T22:16:04.770Z,17.47
2018-12-13T22:18:32.978Z,17.17
2018-12-13T22:21:01.130Z,18.97
2018-12-13T22:23:29.489Z,17.13
2018-12-13T22:25:57.824Z,17.80
2018-12-13T22:28:26.022Z,20.40
2018-12-13T22:30:54.371Z,20.83
2018-12-13T22:33:22.588Z,19.33
2018-12-13T22:35:50.791Z,19.43
2018-12-13T22:38:19.082Z,22.27
2018-12-13T22:40:47.230Z,17.83
2018-12-13T22:43:20.523Z,22.13
2018-12-13T22:45:45.747Z,21.43
2018-12-13T22:48:13.884Z,22.10
2018-12-13T22:50:42.100Z,23.07
2018-12-13T22:53:10.244Z,23.07
2018-12-13T22:55:38.414Z,20.67
2018-12-13T22:58:06.595Z,19.53
2018-12-13T23:00:35.076Z,20.90
2018-12-13T23:03:03.495Z,20.87
2018-12-13T23:05:31.803Z,19.17
2018-12-13T23:07:59.940Z,21.83
2018-12-13T23:10:28.186Z,23.27
2018-12-13T23:12:56.350Z,22.37
2018-12-13T23:15:24.511Z,22.03
2018-12-13T23:17:52.650Z,22.63
2018-12-13T23:20:21.084Z,20.87
2018-12-13T23:22:49.242Z,21.90
2018-12-13T23:25:17.443Z,21.33
2018-12-13T23:27:45.602Z,21.87
2018-12-13T23:30:13.804Z,22.47
2018-12-13T23:32:42.201Z,24.43
2018-12-13T23:35:10.650Z,21.70
2018-12-13T23:37:38.803Z,23.33
2018-12-13T23:40:06.954Z,25.37
2018-12-13T23:42:35.259Z,26.13
2018-12-13T23:45:04.174Z,22.83
2018-12-13T23:47:32.318Z,24.57
2018-12-13T23:50:00.643Z,24.13
2018-12-13T23:52:28.860Z,24.13
2018-12-13T23:54:57.073Z,24.40
2018-12-13T23:57:25.416Z,26.53
2018-12-13T23:59:53.603Z,27.97
